createdAt,value
2018-09-24T00:02:19.205Z,95204.60
2018-09-24T00:04:47.560Z,95201.63
2018-09-24T00:07:15.611Z,95193.50
2018-09-24T00:09:43.690Z,95202.52
2018-09-24T00:12:11.856Z,95194.59
2018-09-24T00:14:39.831Z,95201.03
2018-09-24T00:17:07.785Z,95191.44
2018-09-24T00:19:35.760Z,95192.05
2018-09-24T00:22:03.780Z,95181.82
2018-09-24T00:24:31.765Z,95189.16
2018-09-24T00:27:00.002Z,95174.80
2018-09-24T00:29:27.949Z,95172.80
2018-09-24T00:31:55.865Z,95167.36
2018-09-24T00:34:23.808Z,95161.19
2018-09-24T00:36:51.680Z,95162.17
2018-09-24T00:39:19.590Z,95157.81
2018-09-24T00:41:47.507Z,95157.92
2018-09-24T00:44:16.563Z,95150.80
2018-09-24T00:46:44.626Z,95159.77
2018-09-24T00:49:12.478Z,95143.58
2018-09-24T00:51:40.488Z,95139.98
2018-09-24T00:54:08.434Z,95143.13
2018-09-24T00:56:36.497Z,95141.94
2018-09-24T00:59:04.548Z,95123.52
2018-09-24T01:01:32.596Z,95145.20
2018-09-24T01:04:00.474Z,95139.70
2018-09-24T01:06:28.476Z,95131.45
2018-09-24T01:08:56.503Z,95132.30
2018-09-24T01:11:24.401Z,95122.92
2018-09-24T01:13:52.311Z,95121.53
2018-09-24T01:16:20.283Z,95119.88
2018-09-24T01:18:48.256Z,95119.67
2018-09-24T01:21:16.214Z,95120.66
2018-09-24T01:23:44.247Z,95116.66
2018-09-24T01:26:12.294Z,95106.93
2018-09-24T01:28:40.382Z,95109.42
2018-09-24T01:31:08.599Z,95106.36
2018-09-24T01:33:36.751Z,95104.27
2018-09-24T01:36:04.766Z,95101.67
2018-09-24T01:38:32.716Z,95096.05
2018-09-24T01:41:00.604Z,95090.23
2018-09-24T01:43:28.465Z,95088.89
2018-09-24T01:45:56.969Z,95084.39
2018-09-24T01:48:24.936Z,95084.32
2018-09-24T01:50:52.885Z,95065.23
2018-09-24T01:53:20.773Z,95072.06
2018-09-24T01:55:50.262Z,95072.64
2018-09-24T01:58:18.147Z,95076.23
2018-09-24T02:00:46.071Z,95082.31
2018-09-24T02:03:14.018Z,95075.28
2018-09-24T02:05:42.000Z,95075.75
2018-09-24T02:08:09.906Z,95086.55
2018-09-24T02:10:37.938Z,95071.94
2018-09-24T02:13:06.100Z,95080.05
2018-09-24T02:15:34.142Z,95070.87
2018-09-24T02:18:02.142Z,95048.72
2018-09-24T02:20:30.203Z,95073.56
2018-09-24T02:22:58.306Z,95073.00
2018-09-24T02:25:26.350Z,95074.77
2018-09-24T02:27:54.991Z,95059.86
2018-09-24T02:30:23.313Z,95045.97
2018-09-24T02:32:51.346Z,95056.60
2018-09-24T02:35:19.400Z,95049.50
2018-09-24T02:37:47.506Z,95050.34
2018-09-24T02:40:24.224Z,95040.83
2018-09-24T02:42:52.069Z,95045.66
2018-09-24T02:45:20.760Z,95052.28
2018-09-24T02:47:48.732Z,95040.63
2018-09-24T02:50:16.759Z,95034.11
2018-09-24T02:52:44.678Z,95062.55
2018-09-24T02:55:17.346Z,95037.80
2018-09-24T02:57:45.478Z,95031.71
2018-09-24T03:00:17.885Z,95048.18
2018-09-24T03:02:45.813Z,95034.83
2018-09-24T03:05:13.736Z,95050.41
2018-09-24T03:07:41.658Z,95032.34
2018-09-24T03:10:09.588Z,95022.25
2018-09-24T03:12:37.871Z,95040.98
2018-09-24T03:15:05.954Z,95017.23
2018-09-24T03:17:33.981Z,95025.37
2018-09-24T03:20:02.228Z,95010.37
2018-09-24T03:22:30.219Z,95025.25
2018-09-24T03:24:59.259Z,95022.00
2018-09-24T03:27:27.231Z,95009.19
2018-09-24T03:29:55.122Z,95027.87
2018-09-24T03:32:23.070Z,95037.83
2018-09-24T03:34:50.949Z,95020.59
2018-09-24T03:37:18.951Z,95015.65
2018-09-24T03:39:46.856Z,95017.02
2018-09-24T03:42:14.881Z,95004.53
2018-09-24T03:44:42.896Z,95007.19
2018-09-24T03:47:10.976Z,95006.36
2018-09-24T03:49:38.986Z,95003.19
2018-09-24T03:52:07.245Z,95018.52
2018-09-24T03:54:35.616Z,95020.64
2018-09-24T03:57:03.594Z,95006.84
2018-09-24T03:59:31.561Z,95001.48
2018-09-24T04:01:59.650Z,95005.41
2018-09-24T04:04:33.086Z,94992.79
2018-09-24T04:07:06.485Z,94996.97
2018-09-24T04:09:39.999Z,95002.95
2018-09-24T04:12:14.530Z,95001.36
2018-09-24T04:14:48.247Z,95007.62
2018-09-24T04:17:21.530Z,94998.49
2018-09-24T04:19:54.915Z,94990.25
2018-09-24T04:22:28.358Z,94987.47
2018-09-24T04:25:01.938Z,94991.94
2018-09-24T04:27:35.325Z,94994.89
2018-09-24T04:30:09.153Z,94995.77
2018-09-24T04:32:42.366Z,94994.60
2018-09-24T04:35:15.811Z,94983.15
2018-09-24T04:37:49.249Z,94993.24
2018-09-24T04:40:22.634Z,94993.16
2018-09-24T04:42:55.915Z,94992.81
2018-09-24T04:45:29.154Z,94995.24
2018-09-24T04:48:02.519Z,94984.91
2018-09-24T04:50:37.522Z,94989.09
2018-09-24T04:53:10.899Z,95002.07
2018-09-24T04:55:44.274Z,94991.86
2018-09-24T04:58:19.731Z,94964.44
2018-09-24T05:00:53.205Z,94986.56
2018-09-24T05:03:27.571Z,94980.78
2018-09-24T05:06:01.058Z,94982.33
2018-09-24T05:08:34.494Z,94982.25
2018-09-24T05:11:07.888Z,94974.73
2018-09-24T05:13:41.591Z,94987.43
2018-09-24T05:16:14.989Z,94997.92
2018-09-24T05:18:48.430Z,95001.28
2018-09-24T05:21:21.862Z,94985.90
2018-09-24T05:23:55.194Z,94995.40
2018-09-24T05:26:28.442Z,94997.64
2018-09-24T05:29:01.903Z,94992.73
2018-09-24T05:31:35.155Z,94985.13
2018-09-24T05:34:08.533Z,95001.26
2018-09-24T05:36:42.432Z,94980.78
2018-09-24T05:39:15.898Z,94991.45
2018-09-24T05:41:49.150Z,94985.39
2018-09-24T05:44:22.626Z,94991.33
2018-09-24T05:46:55.889Z,94983.82
2018-09-24T05:49:29.327Z,94981.47
2018-09-24T05:52:02.698Z,94992.06
2018-09-24T05:54:36.112Z,94981.80
2018-09-24T05:57:09.590Z,94977.72
2018-09-24T05:59:43.047Z,94978.98
2018-09-24T06:02:16.442Z,94983.50
2018-09-24T06:04:49.837Z,94997.09
2018-09-24T06:07:23.261Z,94989.27
2018-09-24T06:09:56.633Z,94991.25
2018-09-24T06:12:30.133Z,94979.62
2018-09-24T06:15:03.725Z,94975.13
2018-09-24T06:17:37.150Z,94979.86
2018-09-24T06:20:10.865Z,94981.70
2018-09-24T06:22:44.444Z,94987.97
2018-09-24T06:25:18.037Z,94993.07
2018-09-24T06:27:51.431Z,95001.16
2018-09-24T06:30:24.958Z,94991.11
2018-09-24T06:32:58.236Z,94990.02
2018-09-24T06:35:31.545Z,94995.00
2018-09-24T06:38:05.831Z,95002.67
2018-09-24T06:40:39.528Z,94986.45
2018-09-24T06:43:13.138Z,95004.24
2018-09-24T06:45:46.642Z,94996.39
2018-09-24T06:48:19.930Z,95003.31
2018-09-24T06:50:53.378Z,95007.77
2018-09-24T06:53:26.957Z,95006.36
2018-09-24T06:56:01.095Z,95000.48
2018-09-24T06:58:34.394Z,94994.13
2018-09-24T07:01:07.878Z,94993.50
2018-09-24T07:03:41.256Z,95007.23
2018-09-24T07:06:14.759Z,94995.95
2018-09-24T07:08:48.150Z,94983.14
2018-09-24T07:11:21.644Z,94471.80
2018-09-24T07:13:55.158Z,94983.14
2018-09-24T07:16:28.411Z,94983.83
2018-09-24T07:19:01.819Z,94981.41
2018-09-24T07:21:35.535Z,94986.13
2018-09-24T07:24:08.996Z,94991.73
2018-09-24T07:26:42.335Z,94985.28
2018-09-24T07:29:15.729Z,94984.87
2018-09-24T07:31:49.100Z,94984.00
2018-09-24T07:34:22.425Z,94973.48
2018-09-24T07:36:56.157Z,94985.19
2018-09-24T07:39:29.507Z,94968.84
2018-09-24T07:42:03.057Z,94968.69
2018-09-24T07:44:36.504Z,94964.66
2018-09-24T07:47:09.908Z,94966.84
2018-09-24T07:49:43.363Z,94964.89
2018-09-24T07:52:16.801Z,94963.93
2018-09-24T07:54:50.358Z,94967.33
2018-09-24T07:57:23.784Z,94964.08
2018-09-24T07:59:57.143Z,94961.30
2018-09-24T08:02:30.566Z,94966.33
2018-09-24T08:05:03.975Z,94964.92
2018-09-24T08:07:37.378Z,94958.36
2018-09-24T08:10:12.099Z,94953.20
2018-09-24T08:12:45.459Z,94946.33
2018-09-24T08:15:19.231Z,94946.66
2018-09-24T08:17:52.815Z,94952.09
2018-09-24T08:20:27.412Z,94948.59
2018-09-24T08:23:00.762Z,94952.72
2018-09-24T08:25:34.257Z,94949.59
2018-09-24T08:28:07.539Z,94947.84
2018-09-24T08:30:41.054Z,94947.16
2018-09-24T08:33:14.413Z,94948.28
2018-09-24T08:35:47.690Z,94950.97
2018-09-24T08:38:21.130Z,94942.70
2018-09-24T08:40:54.553Z,94940.45
2018-09-24T08:43:27.985Z,94939.86
2018-09-24T08:46:01.269Z,94944.70
2018-09-24T08:48:34.682Z,94944.02
2018-09-24T08:51:08.077Z,94937.92
2018-09-24T08:53:41.577Z,94939.31
2018-09-24T08:56:14.863Z,94943.48
2018-09-24T08:58:48.464Z,94935.02
2018-09-24T09:01:22.000Z,94934.48
2018-09-24T09:03:55.583Z,94937.30
2018-09-24T09:06:29.242Z,94934.52
2018-09-24T09:09:02.807Z,94937.87
2018-09-24T09:11:36.333Z,94922.54
2018-09-24T09:14:09.937Z,94921.12
2018-09-24T09:16:43.279Z,94818.72
2018-09-24T09:19:16.734Z,94920.84
2018-09-24T09:21:50.125Z,94914.42
2018-09-24T09:24:24.420Z,94916.11
2018-09-24T09:26:57.843Z,94912.96
2018-09-24T09:29:31.434Z,94913.71
2018-09-24T09:32:04.755Z,94909.00
2018-09-24T09:34:38.456Z,94905.82
2018-09-24T09:37:11.853Z,94906.28
2018-09-24T09:39:45.299Z,94904.53
2018-09-24T09:42:18.702Z,94896.64
2018-09-24T09:44:52.091Z,94908.58
2018-09-24T09:47:25.588Z,94900.84
2018-09-24T09:49:59.692Z,94892.13
2018-09-24T09:52:32.945Z,94892.83
2018-09-24T09:55:07.739Z,94891.89
2018-09-24T09:57:41.108Z,94890.75
2018-09-24T10:00:14.541Z,94879.94
2018-09-24T10:02:48.080Z,94886.01
2018-09-24T10:05:21.433Z,94881.92
2018-09-24T10:07:54.975Z,94887.85
2018-09-24T10:10:28.441Z,94874.96
2018-09-24T10:13:01.967Z,94870.64
2018-09-24T10:15:36.266Z,94867.75
2018-09-24T10:18:10.010Z,94861.72
2018-09-24T10:20:43.373Z,94865.44
2018-09-24T10:23:16.980Z,94860.54
2018-09-24T10:25:50.378Z,94858.91
2018-09-24T10:28:24.731Z,94860.40
2018-09-24T10:31:00.820Z,94859.52
2018-09-24T10:33:34.254Z,94855.46
2018-09-24T10:36:08.341Z,94855.61
2018-09-24T10:38:42.769Z,94849.08
2018-09-24T10:41:16.203Z,94837.03
2018-09-24T10:43:49.578Z,94838.14
2018-09-24T10:46:23.107Z,94836.97
2018-09-24T10:48:57.242Z,94831.38
2018-09-24T10:51:30.479Z,94834.98
2018-09-24T10:54:03.867Z,94828.76
2018-09-24T10:56:37.387Z,94835.92
2018-09-24T10:59:10.929Z,94826.29
2018-09-24T11:01:44.378Z,94832.36
2018-09-24T11:04:20.674Z,94828.45
2018-09-24T11:06:53.991Z,94803.73
2018-09-24T11:09:27.443Z,94833.09
2018-09-24T11:12:01.213Z,94821.59
2018-09-24T11:14:34.650Z,94817.96
2018-09-24T11:17:08.644Z,94816.69
2018-09-24T11:19:45.668Z,94810.86
2018-09-24T11:22:19.944Z,94809.39
2018-09-24T11:24:54.599Z,94812.00
2018-09-24T11:27:28.077Z,94824.20
2018-09-24T11:30:03.259Z,94820.78
2018-09-24T11:32:36.691Z,94816.63
2018-09-24T11:35:10.394Z,94819.87
2018-09-24T11:37:43.835Z,94809.06
2018-09-24T11:40:17.293Z,94830.98
2018-09-24T11:42:51.301Z,94832.06
2018-09-24T11:45:24.735Z,94826.41
2018-09-24T11:47:58.572Z,94835.77
2018-09-24T11:50:31.819Z,94851.25
2018-09-24T11:53:05.560Z,94847.50
2018-09-24T11:55:39.124Z,94855.52
2018-09-24T11:58:12.662Z,94857.73
2018-09-24T12:00:46.287Z,94888.27
2018-09-24T12:03:19.924Z,94890.57
2018-09-24T12:05:53.563Z,94905.48
2018-09-24T12:08:27.932Z,94915.83
2018-09-24T12:11:01.234Z,94936.70
2018-09-24T12:13:34.683Z,94943.97
2018-09-24T12:16:08.055Z,94967.36
2018-09-24T12:18:41.689Z,94966.51
2018-09-24T12:21:15.223Z,94976.39
2018-09-24T12:23:48.869Z,94992.02
2018-09-24T12:26:22.201Z,94998.58
2018-09-24T12:28:55.675Z,95013.90
2018-09-24T12:31:28.958Z,95014.00
2018-09-24T12:34:02.438Z,95018.87
2018-09-24T12:36:36.012Z,95022.02
2018-09-24T12:39:11.281Z,95034.01
2018-09-24T12:41:44.611Z,95032.13
2018-09-24T12:44:18.019Z,95039.33
2018-09-24T12:46:51.480Z,95042.62
2018-09-24T12:49:24.671Z,95063.23
2018-09-24T12:51:58.095Z,95080.28
2018-09-24T12:54:31.419Z,95097.98
2018-09-24T12:57:05.120Z,95084.41
2018-09-24T12:59:38.543Z,95099.01
2018-09-24T13:02:11.972Z,95102.21
2018-09-24T13:04:45.273Z,95115.20
2018-09-24T13:07:18.598Z,95139.02
2018-09-24T13:09:52.010Z,95161.61
2018-09-24T13:12:25.512Z,95167.12
2018-09-24T13:14:59.888Z,95164.23
2018-09-24T13:17:33.453Z,95167.73
2018-09-24T13:20:07.089Z,95168.17
2018-09-24T13:22:40.414Z,95175.69
2018-09-24T13:25:13.822Z,95194.89
2018-09-24T13:27:47.112Z,95209.95
2018-09-24T13:30:20.739Z,95229.24
2018-09-24T13:32:57.788Z,95238.95
2018-09-24T13:35:35.403Z,95236.50
2018-09-24T13:38:14.589Z,95221.34
2018-09-24T13:40:57.779Z,95254.02
2018-09-24T13:43:35.711Z,95261.63
2018-09-24T13:46:28.862Z,95268.98
2018-09-24T13:49:03.188Z,95255.98
2018-09-24T13:51:49.902Z,95257.72
2018-09-24T13:57:05.559Z,95283.12
2018-09-24T13:59:44.651Z,95284.94
2018-09-24T14:02:28.897Z,95272.06
2018-09-24T14:05:02.122Z,95268.42
2018-09-24T14:07:35.554Z,95293.28
2018-09-24T14:10:09.248Z,95284.20
2018-09-24T14:12:42.458Z,95279.48
2018-09-24T14:15:15.839Z,95290.09
2018-09-24T14:17:49.114Z,95283.13
2018-09-24T14:20:22.506Z,95295.05
2018-09-24T14:22:55.972Z,95266.42
2018-09-24T14:25:29.965Z,95277.45
2018-09-24T14:28:04.976Z,95288.43
2018-09-24T14:30:38.595Z,95290.19
2018-09-24T14:33:12.019Z,95289.37
2018-09-24T14:35:46.575Z,95288.47
2018-09-24T14:38:19.809Z,95301.91
2018-09-24T14:40:59.968Z,95295.43
2018-09-24T14:43:37.401Z,95308.46
2018-09-24T14:46:12.005Z,95290.55
2018-09-24T14:48:46.258Z,95312.81
2018-09-24T14:51:19.623Z,95315.53
2018-09-24T14:53:53.326Z,95317.10
2018-09-24T14:56:26.792Z,95332.36
2018-09-24T14:59:00.266Z,95332.42
2018-09-24T15:01:34.251Z,95350.37
2018-09-24T15:04:07.622Z,95369.81
2018-09-24T15:06:40.989Z,95384.56
2018-09-24T15:09:14.293Z,95380.88
2018-09-24T15:11:47.691Z,95395.33
2018-09-24T15:14:21.046Z,95392.95
2018-09-24T15:16:54.687Z,95394.73
2018-09-24T15:19:28.849Z,95396.37
2018-09-24T15:22:02.633Z,95392.14
2018-09-24T15:24:36.326Z,95397.87
2018-09-24T15:27:10.003Z,95399.98
2018-09-24T15:29:43.537Z,95394.59
2018-09-24T15:32:23.823Z,95387.85
2018-09-24T15:34:57.133Z,95407.84
2018-09-24T15:37:30.975Z,95396.64
2018-09-24T15:40:05.940Z,95422.10
2018-09-24T15:42:39.592Z,95437.28
2018-09-24T15:45:13.234Z,95432.23
2018-09-24T15:47:46.747Z,95437.33
2018-09-24T15:50:20.581Z,95434.52
2018-09-24T15:52:54.162Z,95463.00
2018-09-24T15:55:27.595Z,95452.00
2018-09-24T15:58:01.185Z,95470.84
2018-09-24T16:00:34.693Z,95468.02
2018-09-24T16:03:07.943Z,95465.72
2018-09-24T16:05:41.709Z,95488.17
2018-09-24T16:08:15.417Z,95480.25
2018-09-24T16:10:48.737Z,95474.56
2018-09-24T16:13:22.091Z,95478.69
2018-09-24T16:15:55.667Z,95493.90
2018-09-24T16:18:29.069Z,95487.72
2018-09-24T16:21:03.682Z,95499.34
2018-09-24T16:23:37.717Z,95520.82
2018-09-24T16:26:11.494Z,95516.94
2018-09-24T16:28:45.152Z,95529.60
2018-09-24T16:31:18.527Z,95515.20
2018-09-24T16:33:52.072Z,95526.08
2018-09-24T16:36:25.565Z,95542.88
2018-09-24T16:38:59.200Z,95537.27
2018-09-24T16:41:32.866Z,95554.67
2018-09-24T16:44:06.539Z,95549.47
2018-09-24T16:46:39.999Z,95572.73
2018-09-24T16:49:13.518Z,95556.70
2018-09-24T16:51:47.883Z,95552.02
2018-09-24T16:54:21.185Z,95551.73
2018-09-24T16:56:54.708Z,95560.44
2018-09-24T16:59:28.349Z,95567.16
2018-09-24T17:04:41.333Z,95585.90
2018-09-24T17:07:18.166Z,95587.71
2018-09-24T17:09:53.278Z,95591.19
2018-09-24T17:12:26.999Z,95590.12
2018-09-24T17:15:01.102Z,95598.88
2018-09-24T17:17:34.696Z,95620.74
2018-09-24T17:20:11.565Z,95597.98
2018-09-24T17:22:44.975Z,95618.83
2018-09-24T17:25:18.360Z,95633.11
2018-09-24T17:27:54.026Z,95619.37
2018-09-24T17:30:27.514Z,95630.61
2018-09-24T17:33:00.887Z,95620.71
2018-09-24T17:35:34.214Z,95637.48
2018-09-24T17:38:07.681Z,95633.59
2018-09-24T17:40:40.996Z,95650.34
2018-09-24T17:43:14.389Z,95642.30
2018-09-24T17:45:47.904Z,95629.62
2018-09-24T17:48:21.142Z,95642.03
2018-09-24T17:50:54.541Z,95663.05
2018-09-24T17:53:27.916Z,95656.02
2018-09-24T17:56:03.039Z,95661.02
2018-09-24T17:58:36.693Z,95660.48
2018-09-24T18:01:10.035Z,95664.36
2018-09-24T18:03:43.411Z,95677.29
2018-09-24T18:06:16.845Z,95666.41
2018-09-24T18:08:50.303Z,95671.39
2018-09-24T18:11:23.618Z,95674.47
2018-09-24T18:13:57.828Z,95678.87
2018-09-24T18:16:31.302Z,95693.36
2018-09-24T18:19:04.731Z,95695.09
2018-09-24T18:21:38.151Z,95706.77
2018-09-24T18:24:11.571Z,95714.42
2018-09-24T18:26:44.936Z,95719.75
2018-09-24T18:29:19.617Z,95713.20
2018-09-24T18:31:58.061Z,95728.72
2018-09-24T18:34:35.294Z,95730.84
2018-09-24T18:37:09.287Z,95741.63
2018-09-24T18:39:46.034Z,95762.38
2018-09-24T18:42:19.524Z,95728.58
2018-09-24T18:44:53.019Z,95774.84
2018-09-24T18:47:26.361Z,95779.32
2018-09-24T18:49:59.893Z,95771.94
2018-09-24T18:52:33.243Z,95779.61
2018-09-24T18:55:07.583Z,95785.37
2018-09-24T18:57:41.051Z,95782.69
2018-09-24T19:00:14.602Z,95793.33
2018-09-24T19:02:47.855Z,95790.41
2018-09-24T19:05:21.204Z,95784.92
2018-09-24T19:07:54.654Z,95799.09
2018-09-24T19:10:28.394Z,95808.02
2018-09-24T19:13:01.742Z,95810.33
2018-09-24T19:15:35.314Z,95809.17
2018-09-24T19:18:08.951Z,95816.80
2018-09-24T19:20:42.410Z,95805.45
2018-09-24T19:23:15.766Z,95821.09
2018-09-24T19:25:49.192Z,95815.43
2018-09-24T19:28:23.027Z,95823.34
2018-09-24T19:30:57.940Z,95810.88
2018-09-24T19:33:31.451Z,95744.14
2018-09-24T19:36:04.893Z,95821.11
2018-09-24T19:38:38.370Z,95826.53
2018-09-24T19:41:11.852Z,95836.25
2018-09-24T19:43:45.160Z,95849.27
2018-09-24T19:46:18.600Z,95842.90
2018-09-24T19:48:51.973Z,95841.69
2018-09-24T19:51:25.285Z,95831.84
2018-09-24T19:53:58.665Z,95842.00
2018-09-24T19:56:31.969Z,95846.25
2018-09-24T19:59:05.901Z,95843.05
2018-09-24T20:01:40.301Z,95833.35
2018-09-24T20:04:13.970Z,95833.60
2018-09-24T20:06:47.218Z,95842.36
2018-09-24T20:09:20.670Z,95842.72
2018-09-24T20:11:54.108Z,95843.25
2018-09-24T20:14:27.536Z,95835.98
2018-09-24T20:17:04.521Z,95844.06
2018-09-24T20:19:37.893Z,95854.31
2018-09-24T20:22:13.129Z,95853.48
2018-09-24T20:24:47.140Z,95857.61
2018-09-24T20:27:20.523Z,95856.89
2018-09-24T20:29:54.248Z,95867.50
2018-09-24T20:32:27.588Z,95879.30
2018-09-24T20:35:00.855Z,95865.33
2018-09-24T20:37:34.603Z,95879.81
2018-09-24T20:40:08.316Z,95881.61
2018-09-24T20:42:41.808Z,95893.17
2018-09-24T20:45:15.563Z,95891.59
2018-09-24T20:47:48.926Z,95887.82
2018-09-24T20:50:22.404Z,95906.28
2018-09-24T20:52:55.709Z,95910.88
2018-09-24T20:55:29.004Z,95915.19
2018-09-24T20:58:02.526Z,95916.61
2018-09-24T21:00:37.265Z,95917.63
2018-09-24T21:03:11.329Z,95915.08
2018-09-24T21:05:44.673Z,95916.42
2018-09-24T21:08:18.531Z,95926.95
2018-09-24T21:10:51.863Z,95917.63
2018-09-24T21:13:26.104Z,95928.24
2018-09-24T21:15:59.840Z,95922.52
2018-09-24T21:18:33.200Z,95931.84
2018-09-24T21:21:06.603Z,95935.12
2018-09-24T21:23:39.879Z,95932.52
2018-09-24T21:26:13.364Z,95930.42
2018-09-24T21:28:46.844Z,95944.30
2018-09-24T21:31:20.180Z,95944.55
2018-09-24T21:33:53.546Z,95944.66
2018-09-24T21:36:26.952Z,95934.89
2018-09-24T21:39:02.589Z,95920.23
2018-09-24T21:41:36.030Z,95926.95
2018-09-24T21:44:09.482Z,95924.06
2018-09-24T21:46:43.891Z,95932.65
2018-09-24T21:49:19.216Z,95934.80
2018-09-24T21:54:32.703Z,95937.75
2018-09-24T21:57:06.298Z,95931.59
2018-09-24T21:59:40.052Z,95939.27
2018-09-24T22:02:13.756Z,95932.50
2018-09-24T22:04:47.105Z,95950.23
2018-09-24T22:07:20.302Z,95940.46
2018-09-24T22:09:53.677Z,95933.91
2018-09-24T22:12:27.180Z,95938.22
2018-09-24T22:15:00.592Z,95941.24
2018-09-24T22:17:34.054Z,95943.48
2018-09-24T22:20:08.600Z,95849.08
2018-09-24T22:22:42.308Z,95944.52
2018-09-24T22:25:15.970Z,95950.41
2018-09-24T22:27:49.577Z,95949.34
2018-09-24T22:30:23.035Z,95952.98
2018-09-24T22:32:56.400Z,95960.16
2018-09-24T22:35:30.041Z,95963.54
2018-09-24T22:38:03.359Z,95969.84
2018-09-24T22:40:38.270Z,95967.33
2018-09-24T22:43:11.764Z,95971.88
2018-09-24T22:45:45.180Z,95957.42
2018-09-24T22:48:18.386Z,95959.55
2018-09-24T22:50:51.648Z,95966.30
2018-09-24T22:53:25.058Z,95976.61
2018-09-24T22:55:58.484Z,95969.33
2018-09-24T22:58:31.935Z,95974.25
2018-09-24T23:01:05.378Z,95974.19
2018-09-24T23:03:38.668Z,95967.17
2018-09-24T23:06:11.941Z,95964.56
2018-09-24T23:08:45.410Z,95990.13
2018-09-24T23:11:18.745Z,95990.77
2018-09-24T23:13:52.197Z,95985.42
2018-09-24T23:16:25.763Z,95985.81
2018-09-24T23:18:59.107Z,95992.25
2018-09-24T23:21:32.930Z,95988.26
2018-09-24T23:24:06.439Z,96000.45
2018-09-24T23:26:39.779Z,96002.48
2018-09-24T23:29:13.335Z,95997.16
2018-09-24T23:31:46.596Z,96002.34
2018-09-24T23:34:19.973Z,96004.19
2018-09-24T23:36:53.523Z,96001.89
2018-09-24T23:39:26.991Z,96001.42
2018-09-24T23:42:01.981Z,95998.66
2018-09-24T23:44:35.480Z,95997.33
2018-09-24T23:47:09.082Z,96001.12
2018-09-24T23:49:42.363Z,96011.72
2018-09-24T23:52:15.795Z,96002.92
2018-09-24T23:54:49.037Z,96002.88
2018-09-24T23:57:22.235Z,95997.25
2018-09-24T23:59:55.707Z,96004.66
